sensor_id;sensor_type;location;lat;lon;timestamp;temperature;humidity
18229;DHT22;9239;50.932;3.142;2023-04-03T00:01:41;3.80;99.90
18229;DHT22;9239;50.932;3.142;2023-04-03T00:04:08;3.80;99.90
18229;DHT22;9239;50.932;3.142;2023-04-03T00:06:35;3.80;99.90
18229;DHT22;9239;50.932;3.142;2023-04-03T00:09:03;3.80;99.90
18229;DHT22;9239;50.932;3.142;2023-04-03T00:11:30;3.80;99.90
18229;DHT22;9239;50.932;3.142;2023-04-03T00:13:56;3.80;99.90
18229;DHT22;9239;50.932;3.142;2023-04-03T00:16:24;3.80;99.90
18229;DHT22;9239;50.932;3.142;2023-04-03T00:18:50;3.80;99.90
18229;DHT22;9239;50.932;3.142;2023-04-03T00:21:17;3.80;99.90
18229;DHT22;9239;50.932;3.142;2023-04-03T00:23:44;3.80;99.90
18229;DHT22;9239;50.932;3.142;2023-04-03T00:26:12;3.80;99.90
18229;DHT22;9239;50.932;3.142;2023-04-03T00:28:39;3.80;99.90
18229;DHT22;9239;50.932;3.142;2023-04-03T00:31:06;3.80;99.90
18229;DHT22;9239;50.932;3.142;2023-04-03T00:33:33;3.80;99.90
18229;DHT22;9239;50.932;3.142;2023-04-03T00:36:05;3.80;99.90
18229;DHT22;9239;50.932;3.142;2023-04-03T00:38:32;3.80;99.90
18229;DHT22;9239;50.932;3.142;2023-04-03T00:40:59;3.80;99.90
18229;DHT22;9239;50.932;3.142;2023-04-03T00:43:27;3.80;99.90
18229;DHT22;9239;50.932;3.142;2023-04-03T00:45:55;3.80;99.90
18229;DHT22;9239;50.932;3.142;2023-04-03T00:48:25;3.70;99.90
18229;DHT22;9239;50.932;3.142;2023-04-03T00:50:53;3.70;99.90
18229;DHT22;9239;50.932;3.142;2023-04-03T00:53:23;3.70;99.90
18229;DHT22;9239;50.932;3.142;2023-04-03T00:55:52;3.70;99.90
18229;DHT22;9239;50.932;3.142;2023-04-03T00:58:24;3.70;99.90
18229;DHT22;9239;50.932;3.142;2023-04-03T01:00:55;3.70;99.90
18229;DHT22;9239;50.932;3.142;2023-04-03T01:03:24;3.70;99.90
18229;DHT22;9239;50.932;3.142;2023-04-03T01:05:51;3.70;99.90
18229;DHT22;9239;50.932;3.142;2023-04-03T01:08:18;3.70;99.90
18229;DHT22;9239;50.932;3.142;2023-04-03T01:10:45;3.60;99.90
18229;DHT22;9239;50.932;3.142;2023-04-03T01:13:24;3.60;99.90
18229;DHT22;9239;50.932;3.142;2023-04-03T01:15:53;3.60;99.90
18229;DHT22;9239;50.932;3.142;2023-04-03T01:18:21;3.60;99.90
18229;DHT22;9239;50.932;3.142;2023-04-03T01:21:23;3.60;99.90
18229;DHT22;9239;50.932;3.142;2023-04-03T01:24:08;3.60;99.90
18229;DHT22;9239;50.932;3.142;2023-04-03T01:26:36;3.60;99.90
18229;DHT22;9239;50.932;3.142;2023-04-03T01:29:03;3.50;99.90
18229;DHT22;9239;50.932;3.142;2023-04-03T01:31:42;3.50;99.90
18229;DHT22;9239;50.932;3.142;2023-04-03T01:34:10;3.50;99.90
18229;DHT22;9239;50.932;3.142;2023-04-03T01:36:37;3.40;99.90
18229;DHT22;9239;50.932;3.142;2023-04-03T01:39:04;3.40;99.90
18229;DHT22;9239;50.932;3.142;2023-04-03T01:41:30;3.40;99.90
18229;DHT22;9239;50.932;3.142;2023-04-03T01:43:57;3.40;99.90
18229;DHT22;9239;50.932;3.142;2023-04-03T01:46:24;3.40;99.90
18229;DHT22;9239;50.932;3.142;2023-04-03T01:48:53;3.50;99.90
18229;DHT22;9239;50.932;3.142;2023-04-03T01:51:20;3.50;99.90
18229;DHT22;9239;50.932;3.142;2023-04-03T01:53:47;3.50;99.90
18229;DHT22;9239;50.932;3.142;2023-04-03T01:56:13;3.50;99.90
18229;DHT22;9239;50.932;3.142;2023-04-03T01:58:40;3.40;99.90
18229;DHT22;9239;50.932;3.142;2023-04-03T02:01:07;3.50;99.90
18229;DHT22;9239;50.932;3.142;2023-04-03T02:03:34;3.50;99.90
18229;DHT22;9239;50.932;3.142;2023-04-03T02:06:02;3.50;99.90
18229;DHT22;9239;50.932;3.142;2023-04-03T02:08:30;3.40;99.90
18229;DHT22;9239;50.932;3.142;2023-04-03T02:10:56;3.40;99.90
18229;DHT22;9239;50.932;3.142;2023-04-03T02:13:23;3.40;99.90
18229;DHT22;9239;50.932;3.142;2023-04-03T02:15:50;3.50;99.90
18229;DHT22;9239;50.932;3.142;2023-04-03T02:18:17;3.50;99.90
18229;DHT22;9239;50.932;3.142;2023-04-03T02:20:45;3.50;99.90
18229;DHT22;9239;50.932;3.142;2023-04-03T02:23:14;3.40;99.90
18229;DHT22;9239;50.932;3.142;2023-04-03T02:25:41;3.40;99.90
18229;DHT22;9239;50.932;3.142;2023-04-03T02:28:07;3.40;99.90
18229;DHT22;9239;50.932;3.142;2023-04-03T02:30:34;3.40;99.90
18229;DHT22;9239;50.932;3.142;2023-04-03T02:33:01;3.30;99.90
18229;DHT22;9239;50.932;3.142;2023-04-03T02:35:28;3.40;99.90
18229;DHT22;9239;50.932;3.142;2023-04-03T02:37:54;3.40;99.90
18229;DHT22;9239;50.932;3.142;2023-04-03T02:40:23;3.30;99.90
18229;DHT22;9239;50.932;3.142;2023-04-03T02:42:49;3.30;99.90
18229;DHT22;9239;50.932;3.142;2023-04-03T02:45:16;3.20;99.90
18229;DHT22;9239;50.932;3.142;2023-04-03T02:47:43;3.20;99.90
18229;DHT22;9239;50.932;3.142;2023-04-03T02:50:10;3.10;99.90
18229;DHT22;9239;50.932;3.142;2023-04-03T02:52:37;3.10;99.90
18229;DHT22;9239;50.932;3.142;2023-04-03T02:55:04;3.10;99.90
18229;DHT22;9239;50.932;3.142;2023-04-03T02:57:33;3.10;99.90
18229;DHT22;9239;50.932;3.142;2023-04-03T03:00:00;3.10;99.90
18229;DHT22;9239;50.932;3.142;2023-04-03T03:02:28;3.10;99.90
18229;DHT22;9239;50.932;3.142;2023-04-03T03:04:54;3.10;99.90
18229;DHT22;9239;50.932;3.142;2023-04-03T03:07:21;3.10;99.90
18229;DHT22;9239;50.932;3.142;2023-04-03T03:09:48;3.10;99.90
18229;DHT22;9239;50.932;3.142;2023-04-03T03:12:15;3.10;99.90
18229;DHT22;9239;50.932;3.142;2023-04-03T03:14:48;3.20;99.90
18229;DHT22;9239;50.932;3.142;2023-04-03T03:17:15;3.20;99.90
18229;DHT22;9239;50.932;3.142;2023-04-03T03:19:41;3.30;99.90
18229;DHT22;9239;50.932;3.142;2023-04-03T03:22:08;3.30;99.90
18229;DHT22;9239;50.932;3.142;2023-04-03T03:24:35;3.30;99.90
18229;DHT22;9239;50.932;3.142;2023-04-03T03:27:02;3.20;99.90
18229;DHT22;9239;50.932;3.142;2023-04-03T03:29:29;3.20;99.90
18229;DHT22;9239;50.932;3.142;2023-04-03T03:31:57;3.20;99.90
18229;DHT22;9239;50.932;3.142;2023-04-03T03:34:24;3.20;99.90
18229;DHT22;9239;50.932;3.142;2023-04-03T03:36:51;3.20;99.90
18229;DHT22;9239;50.932;3.142;2023-04-03T03:39:18;3.20;99.90
18229;DHT22;9239;50.932;3.142;2023-04-03T03:41:45;3.10;99.90
18229;DHT22;9239;50.932;3.142;2023-04-03T03:44:12;3.10;99.90
18229;DHT22;9239;50.932;3.142;2023-04-03T03:46:38;3.10;99.90
18229;DHT22;9239;50.932;3.142;2023-04-03T03:49:07;3.20;99.90
18229;DHT22;9239;50.932;3.142;2023-04-03T03:51:34;3.20;99.90
18229;DHT22;9239;50.932;3.142;2023-04-03T03:54:01;3.20;99.90
18229;DHT22;9239;50.932;3.142;2023-04-03T03:56:27;3.10;99.90
18229;DHT22;9239;50.932;3.142;2023-04-03T03:58:54;3.20;99.90
18229;DHT22;9239;50.932;3.142;2023-04-03T04:01:22;3.20;99.90
18229;DHT22;9239;50.932;3.142;2023-04-03T04:03:49;3.20;99.90
18229;DHT22;9239;50.932;3.142;2023-04-03T04:06:17;3.20;99.90
18229;DHT22;9239;50.932;3.142;2023-04-03T04:08:44;3.20;99.90
18229;DHT22;9239;50.932;3.142;2023-04-03T04:11:11;3.20;99.90
18229;DHT22;9239;50.932;3.142;2023-04-03T04:13:37;3.30;99.90
18229;DHT22;9239;50.932;3.142;2023-04-03T04:16:05;3.30;99.90
18229;DHT22;9239;50.932;3.142;2023-04-03T04:18:32;3.30;99.90
18229;DHT22;9239;50.932;3.142;2023-04-03T04:20:59;3.30;99.90
18229;DHT22;9239;50.932;3.142;2023-04-03T04:23:27;3.30;99.90
18229;DHT22;9239;50.932;3.142;2023-04-03T04:25:53;3.40;99.90
18229;DHT22;9239;50.932;3.142;2023-04-03T04:28:20;3.50;99.90
18229;DHT22;9239;50.932;3.142;2023-04-03T04:30:47;3.50;99.90
18229;DHT22;9239;50.932;3.142;2023-04-03T04:33:14;3.60;99.90
18229;DHT22;9239;50.932;3.142;2023-04-03T04:35:42;3.70;99.90
18229;DHT22;9239;50.932;3.142;2023-04-03T04:38:09;3.70;99.90
18229;DHT22;9239;50.932;3.142;2023-04-03T04:40:37;3.60;99.90
18229;DHT22;9239;50.932;3.142;2023-04-03T04:43:04;3.60;99.90
18229;DHT22;9239;50.932;3.142;2023-04-03T04:45:31;3.70;99.90
18229;DHT22;9239;50.932;3.142;2023-04-03T04:47:58;3.80;99.90
18229;DHT22;9239;50.932;3.142;2023-04-03T04:50:25;3.80;99.90
18229;DHT22;9239;50.932;3.142;2023-04-03T04:52:51;3.90;99.90
18229;DHT22;9239;50.932;3.142;2023-04-03T04:55:18;3.80;99.90
18229;DHT22;9239;50.932;3.142;2023-04-03T04:57:47;3.90;99.90
18229;DHT22;9239;50.932;3.142;2023-04-03T05:00:15;3.90;99.90
18229;DHT22;9239;50.932;3.142;2023-04-03T05:02:42;3.90;99.90
18229;DHT22;9239;50.932;3.142;2023-04-03T05:05:09;4.00;99.90
18229;DHT22;9239;50.932;3.142;2023-04-03T05:07:36;4.00;99.90
18229;DHT22;9239;50.932;3.142;2023-04-03T05:10:03;3.90;99.90
18229;DHT22;9239;50.932;3.142;2023-04-03T05:12:31;3.80;99.90
18229;DHT22;9239;50.932;3.142;2023-04-03T05:15:00;3.80;99.90
18229;DHT22;9239;50.932;3.142;2023-04-03T05:17:26;3.80;99.90
18229;DHT22;9239;50.932;3.142;2023-04-03T05:19:53;3.80;99.90
18229;DHT22;9239;50.932;3.142;2023-04-03T05:22:20;3.80;99.90
18229;DHT22;9239;50.932;3.142;2023-04-03T05:24:47;3.80;99.90
18229;DHT22;9239;50.932;3.142;2023-04-03T05:27:14;3.80;99.90
18229;DHT22;9239;50.932;3.142;2023-04-03T05:29:40;3.70;99.90
18229;DHT22;9239;50.932;3.142;2023-04-03T05:32:10;3.70;99.90
18229;DHT22;9239;50.932;3.142;2023-04-03T05:34:37;3.70;99.90
18229;DHT22;9239;50.932;3.142;2023-04-03T05:37:04;3.70;99.90
18229;DHT22;9239;50.932;3.142;2023-04-03T05:39:31;3.70;99.90
18229;DHT22;9239;50.932;3.142;2023-04-03T05:41:58;3.70;99.90
18229;DHT22;9239;50.932;3.142;2023-04-03T05:44:25;3.70;99.90
18229;DHT22;9239;50.932;3.142;2023-04-03T05:46:52;3.80;99.90
18229;DHT22;9239;50.932;3.142;2023-04-03T05:49:20;3.80;99.90
18229;DHT22;9239;50.932;3.142;2023-04-03T05:51:47;4.10;99.90
18229;DHT22;9239;50.932;3.142;2023-04-03T05:54:17;4.30;99.90
18229;DHT22;9239;50.932;3.142;2023-04-03T05:56:45;4.30;99.90
18229;DHT22;9239;50.932;3.142;2023-04-03T05:59:12;4.40;99.90
18229;DHT22;9239;50.932;3.142;2023-04-03T06:01:38;4.40;99.90
18229;DHT22;9239;50.932;3.142;2023-04-03T06:04:06;4.40;99.90
18229;DHT22;9239;50.932;3.142;2023-04-03T06:06:50;4.30;99.90
18229;DHT22;9239;50.932;3.142;2023-04-03T06:09:20;4.40;99.90
18229;DHT22;9239;50.932;3.142;2023-04-03T06:11:47;4.40;99.90
18229;DHT22;9239;50.932;3.142;2023-04-03T06:14:14;4.40;99.90
18229;DHT22;9239;50.932;3.142;2023-04-03T06:16:41;4.50;99.90
18229;DHT22;9239;50.932;3.142;2023-04-03T06:19:09;4.50;99.90
18229;DHT22;9239;50.932;3.142;2023-04-03T06:21:36;4.50;99.90
18229;DHT22;9239;50.932;3.142;2023-04-03T06:24:05;4.50;99.90
18229;DHT22;9239;50.932;3.142;2023-04-03T06:26:33;4.60;99.90
18229;DHT22;9239;50.932;3.142;2023-04-03T06:29:00;4.70;99.90
18229;DHT22;9239;50.932;3.142;2023-04-03T06:31:27;4.80;99.90
18229;DHT22;9239;50.932;3.142;2023-04-03T06:33:54;4.90;99.90
18229;DHT22;9239;50.932;3.142;2023-04-03T06:36:21;4.90;99.90
18229;DHT22;9239;50.932;3.142;2023-04-03T06:38:49;4.90;99.90
18229;DHT22;9239;50.932;3.142;2023-04-03T06:41:17;5.00;99.90
18229;DHT22;9239;50.932;3.142;2023-04-03T06:43:44;5.00;99.90
18229;DHT22;9239;50.932;3.142;2023-04-03T06:46:14;5.10;99.90
18229;DHT22;9239;50.932;3.142;2023-04-03T06:48:42;5.20;99.90
18229;DHT22;9239;50.932;3.142;2023-04-03T06:51:15;5.20;99.90
18229;DHT22;9239;50.932;3.142;2023-04-03T06:53:43;5.20;99.90
18229;DHT22;9239;50.932;3.142;2023-04-03T06:56:10;5.30;99.90
18229;DHT22;9239;50.932;3.142;2023-04-03T06:58:38;5.30;99.90
18229;DHT22;9239;50.932;3.142;2023-04-03T07:01:06;5.40;99.90
18229;DHT22;9239;50.932;3.142;2023-04-03T07:03:33;5.50;99.90
18229;DHT22;9239;50.932;3.142;2023-04-03T07:06:01;5.50;99.90
18229;DHT22;9239;50.932;3.142;2023-04-03T07:08:27;5.50;99.90
18229;DHT22;9239;50.932;3.142;2023-04-03T07:10:54;5.60;99.90
18229;DHT22;9239;50.932;3.142;2023-04-03T07:13:21;5.70;99.90
18229;DHT22;9239;50.932;3.142;2023-04-03T07:15:49;5.80;99.90
18229;DHT22;9239;50.932;3.142;2023-04-03T07:18:16;5.80;99.90
18229;DHT22;9239;50.932;3.142;2023-04-03T07:20:43;5.90;99.90
18229;DHT22;9239;50.932;3.142;2023-04-03T07:23:10;6.00;99.90
18229;DHT22;9239;50.932;3.142;2023-04-03T07:25:42;6.00;99.90
18229;DHT22;9239;50.932;3.142;2023-04-03T07:28:09;6.00;99.90
18229;DHT22;9239;50.932;3.142;2023-04-03T07:30:42;6.10;99.90
18229;DHT22;9239;50.932;3.142;2023-04-03T07:33:10;6.20;99.90
18229;DHT22;9239;50.932;3.142;2023-04-03T07:35:37;6.30;99.90
18229;DHT22;9239;50.932;3.142;2023-04-03T07:38:04;6.40;99.90
18229;DHT22;9239;50.932;3.142;2023-04-03T07:40:31;6.40;99.90
18229;DHT22;9239;50.932;3.142;2023-04-03T07:42:59;6.50;99.90
18229;DHT22;9239;50.932;3.142;2023-04-03T07:45:26;6.60;99.90
18229;DHT22;9239;50.932;3.142;2023-04-03T07:47:53;6.70;99.90
18229;DHT22;9239;50.932;3.142;2023-04-03T07:50:22;6.70;99.90
18229;DHT22;9239;50.932;3.142;2023-04-03T07:52:49;6.80;99.90
18229;DHT22;9239;50.932;3.142;2023-04-03T07:55:16;6.90;99.90
18229;DHT22;9239;50.932;3.142;2023-04-03T07:57:43;6.90;99.90
18229;DHT22;9239;50.932;3.142;2023-04-03T08:00:11;6.90;99.90
18229;DHT22;9239;50.932;3.142;2023-04-03T08:02:39;7.10;99.90
18229;DHT22;9239;50.932;3.142;2023-04-03T08:05:06;7.10;99.90
18229;DHT22;9239;50.932;3.142;2023-04-03T08:07:36;7.20;99.90
18229;DHT22;9239;50.932;3.142;2023-04-03T08:10:04;7.30;99.90
18229;DHT22;9239;50.932;3.142;2023-04-03T08:12:31;7.40;99.90
18229;DHT22;9239;50.932;3.142;2023-04-03T08:14:59;7.50;99.90
18229;DHT22;9239;50.932;3.142;2023-04-03T08:17:26;7.50;99.90
18229;DHT22;9239;50.932;3.142;2023-04-03T08:19:54;7.60;99.90
18229;DHT22;9239;50.932;3.142;2023-04-03T08:22:21;7.70;99.90
18229;DHT22;9239;50.932;3.142;2023-04-03T08:24:49;7.70;99.90
18229;DHT22;9239;50.932;3.142;2023-04-03T08:27:16;7.70;99.90
18229;DHT22;9239;50.932;3.142;2023-04-03T08:29:43;7.70;99.90
18229;DHT22;9239;50.932;3.142;2023-04-03T08:32:10;7.80;99.90
18229;DHT22;9239;50.932;3.142;2023-04-03T08:34:37;7.80;99.90
18229;DHT22;9239;50.932;3.142;2023-04-03T08:37:05;7.90;99.90
18229;DHT22;9239;50.932;3.142;2023-04-03T08:39:32;8.00;99.90
18229;DHT22;9239;50.932;3.142;2023-04-03T08:42:05;8.10;99.90
18229;DHT22;9239;50.932;3.142;2023-04-03T08:44:39;8.20;99.90
18229;DHT22;9239;50.932;3.142;2023-04-03T08:47:13;8.30;99.90
18229;DHT22;9239;50.932;3.142;2023-04-03T08:49:46;8.40;99.90
18229;DHT22;9239;50.932;3.142;2023-04-03T08:52:19;8.40;99.90
18229;DHT22;9239;50.932;3.142;2023-04-03T08:54:52;8.50;99.90
18229;DHT22;9239;50.932;3.142;2023-04-03T08:57:28;8.50;99.90
18229;DHT22;9239;50.932;3.142;2023-04-03T08:59:56;8.60;99.90
18229;DHT22;9239;50.932;3.142;2023-04-03T09:02:29;8.70;99.90
18229;DHT22;9239;50.932;3.142;2023-04-03T09:04:58;8.80;99.90
18229;DHT22;9239;50.932;3.142;2023-04-03T09:07:33;8.90;99.90
18229;DHT22;9239;50.932;3.142;2023-04-03T09:10:03;9.00;99.90
18229;DHT22;9239;50.932;3.142;2023-04-03T09:12:36;9.00;99.90
18229;DHT22;9239;50.932;3.142;2023-04-03T09:15:10;9.00;99.90
18229;DHT22;9239;50.932;3.142;2023-04-03T09:17:44;8.80;99.90
18229;DHT22;9239;50.932;3.142;2023-04-03T09:20:21;8.80;99.90
18229;DHT22;9239;50.932;3.142;2023-04-03T09:22:52;8.90;99.90
18229;DHT22;9239;50.932;3.142;2023-04-03T09:25:22;8.90;99.90
18229;DHT22;9239;50.932;3.142;2023-04-03T09:27:50;9.00;99.90
18229;DHT22;9239;50.932;3.142;2023-04-03T09:30:20;9.00;99.90
18229;DHT22;9239;50.932;3.142;2023-04-03T09:32:51;9.10;99.90
18229;DHT22;9239;50.932;3.142;2023-04-03T09:35:24;9.20;99.90
18229;DHT22;9239;50.932;3.142;2023-04-03T09:37:52;9.20;99.90
18229;DHT22;9239;50.932;3.142;2023-04-03T09:40:34;9.30;99.90
18229;DHT22;9239;50.932;3.142;2023-04-03T09:43:23;9.30;99.90
18229;DHT22;9239;50.932;3.142;2023-04-03T09:45:51;9.30;99.90
18229;DHT22;9239;50.932;3.142;2023-04-03T09:48:20;9.40;99.90
18229;DHT22;9239;50.932;3.142;2023-04-03T09:50:58;9.30;99.90
18229;DHT22;9239;50.932;3.142;2023-04-03T09:53:29;9.20;99.90
18229;DHT22;9239;50.932;3.142;2023-04-03T09:55:56;9.10;99.90
18229;DHT22;9239;50.932;3.142;2023-04-03T09:58:26;9.10;99.90
18229;DHT22;9239;50.932;3.142;2023-04-03T10:00:55;9.20;99.90
18229;DHT22;9239;50.932;3.142;2023-04-03T10:03:25;9.50;99.90
18229;DHT22;9239;50.932;3.142;2023-04-03T10:05:53;9.60;99.90
18229;DHT22;9239;50.932;3.142;2023-04-03T10:08:24;9.70;99.90
18229;DHT22;9239;50.932;3.142;2023-04-03T10:11:12;9.80;99.90
18229;DHT22;9239;50.932;3.142;2023-04-03T10:13:55;9.80;99.90
18229;DHT22;9239;50.932;3.142;2023-04-03T10:16:27;9.90;99.90
18229;DHT22;9239;50.932;3.142;2023-04-03T10:19:14;9.90;99.90
18229;DHT22;9239;50.932;3.142;2023-04-03T10:21:46;9.90;99.90
18229;DHT22;9239;50.932;3.142;2023-04-03T10:24:18;9.90;99.90
18229;DHT22;9239;50.932;3.142;2023-04-03T10:26:54;10.00;99.90
18229;DHT22;9239;50.932;3.142;2023-04-03T10:29:38;9.90;99.90
18229;DHT22;9239;50.932;3.142;2023-04-03T10:32:32;10.00;99.90
18229;DHT22;9239;50.932;3.142;2023-04-03T10:35:14;10.00;99.90
18229;DHT22;9239;50.932;3.142;2023-04-03T10:37:53;10.00;99.90
18229;DHT22;9239;50.932;3.142;2023-04-03T10:40:30;9.90;99.90
18229;DHT22;9239;50.932;3.142;2023-04-03T10:43:04;9.80;99.90
18229;DHT22;9239;50.932;3.142;2023-04-03T10:45:53;9.80;99.90
18229;DHT22;9239;50.932;3.142;2023-04-03T10:48:33;9.80;99.90
18229;DHT22;9239;50.932;3.142;2023-04-03T10:51:09;9.90;99.90
18229;DHT22;9239;50.932;3.142;2023-04-03T10:53:40;9.90;99.90
18229;DHT22;9239;50.932;3.142;2023-04-03T10:56:14;9.90;99.90
18229;DHT22;9239;50.932;3.142;2023-04-03T10:58:44;10.00;99.90
18229;DHT22;9239;50.932;3.142;2023-04-03T11:01:16;10.00;99.90
18229;DHT22;9239;50.932;3.142;2023-04-03T11:03:48;10.10;99.90
18229;DHT22;9239;50.932;3.142;2023-04-03T11:06:18;10.30;99.90
18229;DHT22;9239;50.932;3.142;2023-04-03T11:08:49;10.30;99.90
18229;DHT22;9239;50.932;3.142;2023-04-03T11:11:24;10.30;99.90
18229;DHT22;9239;50.932;3.142;2023-04-03T11:13:55;10.40;99.90
18229;DHT22;9239;50.932;3.142;2023-04-03T11:16:27;10.30;99.90
18229;DHT22;9239;50.932;3.142;2023-04-03T11:18:57;10.30;99.90
18229;DHT22;9239;50.932;3.142;2023-04-03T11:21:28;10.30;99.90
18229;DHT22;9239;50.932;3.142;2023-04-03T11:23:57;10.30;99.90
18229;DHT22;9239;50.932;3.142;2023-04-03T11:26:27;10.30;99.90
18229;DHT22;9239;50.932;3.142;2023-04-03T11:28:59;10.30;99.90
18229;DHT22;9239;50.932;3.142;2023-04-03T11:31:47;10.30;99.90
18229;DHT22;9239;50.932;3.142;2023-04-03T11:34:29;10.50;99.90
18229;DHT22;9239;50.932;3.142;2023-04-03T11:37:05;10.50;99.90
18229;DHT22;9239;50.932;3.142;2023-04-03T11:39:35;10.60;99.90
18229;DHT22;9239;50.932;3.142;2023-04-03T11:42:17;10.70;99.90
18229;DHT22;9239;50.932;3.142;2023-04-03T11:44:50;10.80;99.90
18229;DHT22;9239;50.932;3.142;2023-04-03T11:47:45;10.80;99.90
18229;DHT22;9239;50.932;3.142;2023-04-03T11:53:32;10.60;99.90
18229;DHT22;9239;50.932;3.142;2023-04-03T11:56:27;10.70;99.90
18229;DHT22;9239;50.932;3.142;2023-04-03T11:59:19;10.70;99.90
18229;DHT22;9239;50.932;3.142;2023-04-03T12:01:49;10.80;99.90
18229;DHT22;9239;50.932;3.142;2023-04-03T12:04:19;10.70;99.90
18229;DHT22;9239;50.932;3.142;2023-04-03T12:10:00;10.80;99.90
18229;DHT22;9239;50.932;3.142;2023-04-03T12:12:31;10.90;99.90
18229;DHT22;9239;50.932;3.142;2023-04-03T12:15:17;11.10;99.90
18229;DHT22;9239;50.932;3.142;2023-04-03T12:17:45;11.10;99.90
18229;DHT22;9239;50.932;3.142;2023-04-03T12:20:51;11.00;99.90
18229;DHT22;9239;50.932;3.142;2023-04-03T12:23:30;11.00;99.90
18229;DHT22;9239;50.932;3.142;2023-04-03T12:26:04;11.10;99.90
18229;DHT22;9239;50.932;3.142;2023-04-03T12:28:41;11.20;99.90
18229;DHT22;9239;50.932;3.142;2023-04-03T12:31:10;11.30;99.90
18229;DHT22;9239;50.932;3.142;2023-04-03T12:34:02;11.40;99.90
18229;DHT22;9239;50.932;3.142;2023-04-03T12:36:39;11.40;99.90
18229;DHT22;9239;50.932;3.142;2023-04-03T12:42:32;11.40;99.90
18229;DHT22;9239;50.932;3.142;2023-04-03T12:45:10;11.50;99.90
18229;DHT22;9239;50.932;3.142;2023-04-03T12:47:43;11.70;99.90
18229;DHT22;9239;50.932;3.142;2023-04-03T12:50:19;11.70;99.90
18229;DHT22;9239;50.932;3.142;2023-04-03T12:52:56;11.80;99.90
18229;DHT22;9239;50.932;3.142;2023-04-03T12:55:24;11.70;99.90
18229;DHT22;9239;50.932;3.142;2023-04-03T12:57:52;11.80;99.90
18229;DHT22;9239;50.932;3.142;2023-04-03T13:00:35;11.60;99.90
18229;DHT22;9239;50.932;3.142;2023-04-03T13:03:06;11.60;99.90
18229;DHT22;9239;50.932;3.142;2023-04-03T13:05:34;11.60;99.90
18229;DHT22;9239;50.932;3.142;2023-04-03T13:08:05;11.80;99.90
18229;DHT22;9239;50.932;3.142;2023-04-03T13:10:44;11.90;99.90
18229;DHT22;9239;50.932;3.142;2023-04-03T13:13:14;12.00;99.90
18229;DHT22;9239;50.932;3.142;2023-04-03T13:15:43;11.80;99.90
18229;DHT22;9239;50.932;3.142;2023-04-03T13:18:25;11.80;99.90
18229;DHT22;9239;50.932;3.142;2023-04-03T13:20:58;11.80;99.90
18229;DHT22;9239;50.932;3.142;2023-04-03T13:23:29;11.90;99.90
18229;DHT22;9239;50.932;3.142;2023-04-03T13:25:57;11.90;99.90
18229;DHT22;9239;50.932;3.142;2023-04-03T13:28:28;12.10;99.90
18229;DHT22;9239;50.932;3.142;2023-04-03T13:31:05;12.10;99.90
18229;DHT22;9239;50.932;3.142;2023-04-03T13:33:36;12.00;99.90
18229;DHT22;9239;50.932;3.142;2023-04-03T13:36:07;12.10;99.90
18229;DHT22;9239;50.932;3.142;2023-04-03T13:38:36;12.20;99.90
18229;DHT22;9239;50.932;3.142;2023-04-03T13:41:20;12.20;99.90
18229;DHT22;9239;50.932;3.142;2023-04-03T13:43:47;12.10;99.90
18229;DHT22;9239;50.932;3.142;2023-04-03T13:46:23;12.00;99.90
18229;DHT22;9239;50.932;3.142;2023-04-03T13:48:53;12.10;99.90
18229;DHT22;9239;50.932;3.142;2023-04-03T13:51:23;12.20;99.90
18229;DHT22;9239;50.932;3.142;2023-04-03T13:53:55;12.30;99.90
18229;DHT22;9239;50.932;3.142;2023-04-03T13:56:30;12.30;99.90
18229;DHT22;9239;50.932;3.142;2023-04-03T13:59:05;12.20;99.90
18229;DHT22;9239;50.932;3.142;2023-04-03T14:01:41;12.30;99.90
18229;DHT22;9239;50.932;3.142;2023-04-03T14:04:15;12.30;99.90
18229;DHT22;9239;50.932;3.142;2023-04-03T14:06:42;12.20;99.90
18229;DHT22;9239;50.932;3.142;2023-04-03T14:09:11;12.20;99.90
18229;DHT22;9239;50.932;3.142;2023-04-03T14:11:38;12.00;99.90
18229;DHT22;9239;50.932;3.142;2023-04-03T14:14:11;12.00;99.90
18229;DHT22;9239;50.932;3.142;2023-04-03T14:16:41;11.90;99.90
18229;DHT22;9239;50.932;3.142;2023-04-03T14:19:17;12.00;99.90
18229;DHT22;9239;50.932;3.142;2023-04-03T14:21:44;12.20;99.90
18229;DHT22;9239;50.932;3.142;2023-04-03T14:24:13;12.30;99.90
18229;DHT22;9239;50.932;3.142;2023-04-03T14:26:40;12.40;99.90
18229;DHT22;9239;50.932;3.142;2023-04-03T14:29:11;12.30;99.90
18229;DHT22;9239;50.932;3.142;2023-04-03T14:31:38;12.20;99.90
18229;DHT22;9239;50.932;3.142;2023-04-03T14:34:05;12.00;99.90
18229;DHT22;9239;50.932;3.142;2023-04-03T14:36:32;11.90;99.90
18229;DHT22;9239;50.932;3.142;2023-04-03T14:39:00;11.90;99.90
18229;DHT22;9239;50.932;3.142;2023-04-03T14:41:29;12.00;99.90
18229;DHT22;9239;50.932;3.142;2023-04-03T14:43:56;12.00;99.90
18229;DHT22;9239;50.932;3.142;2023-04-03T14:46:28;12.10;99.90
18229;DHT22;9239;50.932;3.142;2023-04-03T14:48:56;12.00;99.90
18229;DHT22;9239;50.932;3.142;2023-04-03T14:51:23;12.00;99.90
18229;DHT22;9239;50.932;3.142;2023-04-03T14:53:50;12.00;99.90
18229;DHT22;9239;50.932;3.142;2023-04-03T14:56:19;12.00;99.90
18229;DHT22;9239;50.932;3.142;2023-04-03T14:58:49;12.10;99.90
18229;DHT22;9239;50.932;3.142;2023-04-03T15:01:17;12.10;99.90
18229;DHT22;9239;50.932;3.142;2023-04-03T15:03:44;12.20;99.90
18229;DHT22;9239;50.932;3.142;2023-04-03T15:06:13;12.20;99.90
18229;DHT22;9239;50.932;3.142;2023-04-03T15:08:41;12.30;99.90
18229;DHT22;9239;50.932;3.142;2023-04-03T15:11:09;12.30;99.90
18229;DHT22;9239;50.932;3.142;2023-04-03T15:13:37;12.40;99.90
18229;DHT22;9239;50.932;3.142;2023-04-03T15:16:06;12.30;99.90
18229;DHT22;9239;50.932;3.142;2023-04-03T15:18:38;12.40;99.90
18229;DHT22;9239;50.932;3.142;2023-04-03T15:21:05;12.30;99.90
18229;DHT22;9239;50.932;3.142;2023-04-03T15:23:32;12.30;99.90
18229;DHT22;9239;50.932;3.142;2023-04-03T15:25:59;12.40;99.90
18229;DHT22;9239;50.932;3.142;2023-04-03T15:28:28;12.30;99.90
18229;DHT22;9239;50.932;3.142;2023-04-03T15:30:57;12.10;99.90
18229;DHT22;9239;50.932;3.142;2023-04-03T15:33:25;12.00;99.90
18229;DHT22;9239;50.932;3.142;2023-04-03T15:35:52;12.00;99.90
18229;DHT22;9239;50.932;3.142;2023-04-03T15:38:19;12.10;99.90
18229;DHT22;9239;50.932;3.142;2023-04-03T15:40:46;12.20;99.90
18229;DHT22;9239;50.932;3.142;2023-04-03T15:43:14;12.10;99.90
18229;DHT22;9239;50.932;3.142;2023-04-03T15:45:42;12.20;99.90
18229;DHT22;9239;50.932;3.142;2023-04-03T15:48:10;12.20;99.90
18229;DHT22;9239;50.932;3.142;2023-04-03T15:50:39;12.30;99.90
18229;DHT22;9239;50.932;3.142;2023-04-03T15:53:06;12.30;99.90
18229;DHT22;9239;50.932;3.142;2023-04-03T15:55:34;12.30;99.90
18229;DHT22;9239;50.932;3.142;2023-04-03T15:58:02;12.30;99.90
18229;DHT22;9239;50.932;3.142;2023-04-03T16:00:30;12.10;99.90
18229;DHT22;9239;50.932;3.142;2023-04-03T16:03:00;12.00;99.90
18229;DHT22;9239;50.932;3.142;2023-04-03T16:05:30;11.90;99.90
18229;DHT22;9239;50.932;3.142;2023-04-03T16:07:59;11.90;99.90
18229;DHT22;9239;50.932;3.142;2023-04-03T16:10:27;11.80;99.90
18229;DHT22;9239;50.932;3.142;2023-04-03T16:12:54;11.80;99.90
18229;DHT22;9239;50.932;3.142;2023-04-03T16:15:21;11.80;99.90
18229;DHT22;9239;50.932;3.142;2023-04-03T16:17:48;11.80;99.90
18229;DHT22;9239;50.932;3.142;2023-04-03T16:20:15;11.80;99.90
18229;DHT22;9239;50.932;3.142;2023-04-03T16:22:44;11.80;99.90
18229;DHT22;9239;50.932;3.142;2023-04-03T16:25:12;11.70;99.90